Kaministiqua — CFN4612 — position and weather

sailwx.info

Track history (hours):
 
Tides and Currents Weather Stations Pressure Air Temp Water Temp Dewpoint Dewpoint Depression Visibility Wind Speed Wind Dir Waves Ship Positions

Kaministiqua

Last reported at 2016-Dec-02 20:06 UTC. Time now 2016-Dec-08 06:03 UTC.
Position N 43°12' W 079°12'.

Length 223 m; draft 7 m.

Type: Cargo ship. MMSI: 316009457.

Date/timePositionNaut miles runAvg speedWind from/ knotsBaromVisibWave heightAir tempDewpointWater temp
2016-Dec-02 20:06N 43°12' W 079°12'0 0.6
2016-Dec-02 19:31N 43°12' W 079°12'1 1.4
2016-Dec-02 18:33N 43°13' W 079°13'254 7.0
2016-Dec-01 06:23N 45°14' W 074°01'6 7.3
2016-Dec-01 05:33N 45°18' W 073°56'1 0.9
2016-Dec-01 04:33N 45°19' W 073°55'0 0.5
2016-Dec-01 03:33N 45°19' W 073°55'1 1.1
2016-Dec-01 02:33N 45°20' W 073°54'0 0.1
2016-Dec-01 01:18N 45°20' W 073°54'0 0.6
2016-Dec-01 00:33N 45°20' W 073°53'7 7.5
2016-Nov-30 23:33N 45°24' W 073°44'7 6.5
2016-Nov-30 22:33N 45°24' W 073°35'2 2.0
2016-Nov-30 21:33N 45°24' W 073°32'  
2016-Nov-27 20:24N 45°28' W 073°30'4 3.6
2016-Nov-27 19:12N 45°24' W 073°34'1 1.5
2016-Nov-27 18:33N 45°24' W 073°35'6 5.6
2016-Nov-27 17:33N 45°24' W 073°43'10 9.7
2016-Nov-27 16:33N 45°19' W 073°55'1 1.0
2016-Nov-27 15:29N 45°18' W 073°56'1 1.3
2016-Nov-27 14:33N 45°17' W 073°56'9 7.7
2016-Nov-27 13:26N 45°14' W 074°08'114 7.4
2016-Nov-26 22:06N 44°09' W 076°20'4 7.1
2016-Nov-26 21:34N 44°06' W 076°24'13111.9
2016-Nov-26 10:33N 43°16' W 079°11'4 3.3
2016-Nov-26 09:28N 43°13' W 079°13'1 1.6
2016-Nov-26 08:32N 43°12' W 079°12'  
Track history (hours):
 
Tides and Currents Weather Stations Pressure Air Temp Water Temp Dewpoint Dewpoint Depression Visibility Wind Speed Wind Dir Waves Ship Positions

Kaministiqua

Last reported at 2016-Dec-02 20:06 UTC. Time now 2016-Dec-08 06:03 UTC.
Position N 43°12' W 079°12'.

Length 223 m; draft 7 m.

Type: Cargo ship. MMSI: 316009457.

Date/timePositionNaut miles runAvg speedWind from/ knotsBaromVisibWave heightAir tempDewpointWater temp
2016-Dec-02 20:06N 43°12' W 079°12'0 0.6
2016-Dec-02 19:31N 43°12' W 079°12'1 1.4
2016-Dec-02 18:33N 43°13' W 079°13'254 7.0
2016-Dec-01 06:23N 45°14' W 074°01'6 7.3
2016-Dec-01 05:33N 45°18' W 073°56'1 0.9
2016-Dec-01 04:33N 45°19' W 073°55'0 0.5
2016-Dec-01 03:33N 45°19' W 073°55'1 1.1
2016-Dec-01 02:33N 45°20' W 073°54'0 0.1
2016-Dec-01 01:18N 45°20' W 073°54'0 0.6
2016-Dec-01 00:33N 45°20' W 073°53'7 7.5
2016-Nov-30 23:33N 45°24' W 073°44'7 6.5
2016-Nov-30 22:33N 45°24' W 073°35'2 2.0
2016-Nov-30 21:33N 45°24' W 073°32'  
2016-Nov-27 20:24N 45°28' W 073°30'4 3.6
2016-Nov-27 19:12N 45°24' W 073°34'1 1.5
2016-Nov-27 18:33N 45°24' W 073°35'6 5.6
2016-Nov-27 17:33N 45°24' W 073°43'10 9.7
2016-Nov-27 16:33N 45°19' W 073°55'1 1.0
2016-Nov-27 15:29N 45°18' W 073°56'1 1.3
2016-Nov-27 14:33N 45°17' W 073°56'9 7.7
2016-Nov-27 13:26N 45°14' W 074°08'114 7.4
2016-Nov-26 22:06N 44°09' W 076°20'4 7.1
2016-Nov-26 21:34N 44°06' W 076°24'13111.9
2016-Nov-26 10:33N 43°16' W 079°11'4 3.3
2016-Nov-26 09:28N 43°13' W 079°13'1 1.6
2016-Nov-26 08:32N 43°12' W 079°12'  

Dump ship's entire track history